SPJR

Details ICAO SPJR (CJA)
Name GEN FAP ARMANDO REVOREDO IGLESIAS
Region Peru
Timezone America/Lima (UTC-5.0)
Plans Departing 8
Arriving 12
Stats Elevation 8,781 ft / 2,676 m (AMSL)
Location -7.139184° -78.489400°
Runways 1
Magnetic Variation 2.110° W
Sunrise 2018-05-26 11:19:58 UTC / 2018-05-26 06:19:58 Local
Sunset 2018-05-26 23:04:57 UTC / 2018-05-26 18:04:57 Local
Advertisement - Login to hide

Runways

ID Width Length Bearing (true) Bearing (mag) Surface Threshold Offset Overrun Length
16 148 ft / 45 m 8,206 ft / 2,501 m 157.82° 159.93° Asphalt 0 ft / 0 m 190 ft / 58 m
34 148 ft / 45 m 8,206 ft / 2,501 m 337.82° 339.93° Asphalt 0 ft / 0 m 190 ft / 58 m

Map

Weather


0- 5 10 15 20 25 30 35+ Temperature / ° C

Clouds and Precipitation
Forecast for 2018-05-27 00:00 UTC. Updated an hour ago

Ground ~20,000 ft ~40,000 ft Winds

METAR

SPJR 262300Z 01004KT CAVOK 16/07 Q1025 RMK PP000

TAF

SPJR 261710Z 2618/2718 14007KT 9999 SCT025 SCT043 TX22/2619Z TN06/2710Z TEMPO 2710/2714 VRB03KT SCT027 BKN050

Frequencies

Tower 118.10 MHz CAJAMARCA TWR
Warning: Do not use this data for real-world aviation or navigation. No guarantee of current accuracy is given.